Radome Status


Time Cell Pressure Wind mph Temp Com Gen Blower 1 Blower 2 Blower 3 Trigger Alarms Txt
Local net InWc Avg Peak Avg F Pow Pow State/Spd/Secs State/Spd/Secs HowOn/AcOut/secs Event Present Cnt
12:00:23OFF 2.71 2.6 0.0 0.0 41.65ONOFFDwn/0/0Opr/1/76050-AC-OFF/0///0
12:01:23OFF 2.70 2.6 0.0 0.0 41.74ONOFFDwn/0/0Opr/1/76110-AC-OFF/0///0
12:02:23OFF 2.71 2.6 0.0 0.4 41.92ONOFFDwn/0/0Opr/1/76170-AC-OFF/0///0
12:03:24OFF 2.70 2.6 0.6 1.4 41.93ONOFFDwn/0/0Opr/1/76230-AC-OFF/0///0
12:04:28OFF 2.71 2.6 1.2 1.8 41.77ONOFFDwn/0/0Opr/1/76295-AC-OFF/0///0
12:05:28OFF 2.71 2.6 0.2 1.4 41.56ONOFFDwn/0/0Opr/1/76355-AC-OFF/0///0
12:06:29OFF 2.71 2.6 0.1 0.4 41.51ONOFFDwn/0/0Opr/1/76416-AC-OFF/0///0
12:07:29OFF 2.71 2.6 0.0 0.4 41.43ONOFFDwn/0/0Opr/1/76476-AC-OFF/0///0
12:08:29OFF 2.70 2.6 0.0 0.0 41.45ONOFFDwn/0/0Opr/1/76536-AC-OFF/0///0
12:09:29OFF 2.71 2.6 0.0 0.4 41.59ONOFFDwn/0/0Opr/1/76596-AC-OFF/0///0
12:10:30OFF 2.71 2.6 0.0 0.0 41.74ONOFFDwn/0/0Opr/1/76656-AC-OFF/0///0
12:11:35OFF 2.71 2.6 0.0 0.0 41.97ONOFFDwn/0/0Opr/1/76721-AC-OFF/0///0
12:12:35OFF 2.70 2.6 0.0 0.0 42.22ONOFFDwn/0/0Opr/1/76782-AC-OFF/0///0
12:13:36OFF 2.70 2.6 0.0 0.0 42.42ONOFFDwn/0/0Opr/1/76843-AC-OFF/0///0
12:14:36OFF 2.71 2.6 0.3 1.1 42.50ONOFFDwn/0/0Opr/1/76903-AC-OFF/0///0
12:15:36OFF 2.71 2.6 0.6 1.8 42.44ONOFFDwn/0/0Opr/1/76963-AC-OFF/0///0
12:16:36OFF 2.70 2.6 0.0 0.0 42.39ONOFFDwn/0/0Opr/1/77023-AC-OFF/0///0
12:17:36OFF 2.70 2.6 0.0 0.0 42.54ONOFFDwn/0/0Opr/1/77083-AC-OFF/0///0
12:18:37OFF 2.71 2.6 0.7 1.8 42.70ONOFFDwn/0/0Opr/1/77143-AC-OFF/0///0
12:19:37OFF 2.70 2.6 0.8 1.8 42.62ONOFFDwn/0/0Opr/1/77204-AC-OFF/0///0
12:20:37OFF 2.72 2.6 0.5 2.1 42.37ONOFFDwn/0/0Opr/1/77264-AC-OFF/0///0
12:21:37OFF 2.70 2.6 1.4 3.2 42.17ONOFFDwn/0/0Opr/1/77324-AC-OFF/0///0
12:22:37OFF 2.71 2.6 1.7 2.5 42.04ONOFFDwn/0/0Opr/1/77384-AC-OFF/0///0
12:23:38OFF 2.71 2.6 0.6 1.8 41.90ONOFFDwn/0/0Opr/1/77445-AC-OFF/0///0
12:24:38OFF 2.71 2.6 0.1 0.8 41.90ONOFFDwn/0/0Opr/1/77505-AC-OFF/0///0
12:25:39OFF 2.71 2.6 1.5 2.8 42.03ONOFFDwn/0/0Opr/1/77566-AC-OFF/0///0
12:26:40OFF 2.70 2.6 0.9 2.1 42.07ONOFFDwn/0/0Opr/1/77626-AC-OFF/0///0
12:27:44OFF 2.70 2.6 0.9 1.8 42.22ONOFFDwn/0/0Opr/1/77691-AC-OFF/0///0
12:28:44OFF 2.70 2.6 0.6 1.8 42.35ONOFFDwn/0/0Opr/1/77751-AC-OFF/0///0
12:29:44OFF 2.70 2.6 2.4 2.8 42.35ONOFFDwn/0/0Opr/1/77811-AC-OFF/0///0
12:30:46OFF 2.71 2.6 2.0 3.2 42.19ONOFFDwn/0/0Opr/1/77872-AC-OFF/0///0
12:31:50OFF 2.71 2.6 1.7 2.8 42.00ONOFFDwn/0/0Opr/1/77937-AC-OFF/0///0
12:32:51OFF 2.70 2.6 2.8 4.2 41.83ONOFFDwn/0/0Opr/1/77998-AC-OFF/0///0
12:33:51OFF 2.70 2.6 1.3 2.8 41.74ONOFFDwn/0/0Opr/1/78058-AC-OFF/0///0
12:34:52OFF 2.71 2.6 0.2 0.8 41.88ONOFFDwn/0/0Opr/1/78118-AC-OFF/0///0
12:35:56OFF 2.70 2.6 1.3 2.5 42.11ONOFFDwn/0/0Opr/1/78183-AC-OFF/0///0
12:36:56OFF 2.70 2.6 0.5 1.4 42.14ONOFFDwn/0/0Opr/1/78243-AC-OFF/0///0
12:37:56OFF 2.69 2.6 0.3 1.1 42.19ONOFFDwn/0/0Opr/1/78303-AC-OFF/0///0
12:38:56OFF 2.70 2.6 1.2 2.5 42.20ONOFFDwn/0/0Opr/1/78363-AC-OFF/0///0
12:39:57OFF 2.70 2.6 1.6 2.8 42.10ONOFFDwn/0/0Opr/1/78423-AC-OFF/0///0
12:41:01OFF 2.71 2.6 0.0 0.4 41.98ONOFFDwn/0/0Opr/1/78488-AC-OFF/0///0
12:42:01OFF 2.70 2.6 0.3 1.8 41.95ONOFFDwn/0/0Opr/1/78548-AC-OFF/0///0
12:43:01OFF 2.70 2.6 0.3 1.4 41.99ONOFFDwn/0/0Opr/1/78608-AC-OFF/0///0
12:44:01OFF 2.70 2.6 0.0 0.4 42.03ONOFFDwn/0/0Opr/1/78668-AC-OFF/0///0
12:45:02OFF 2.70 2.6 0.0 0.4 41.99ONOFFDwn/0/0Opr/1/78728-AC-OFF/0///0
12:46:06OFF 2.70 2.6 1.2 2.5 41.85ONOFFDwn/0/0Opr/1/78793-AC-OFF/0///0
12:47:06OFF 2.70 2.6 0.4 0.8 41.70ONOFFDwn/0/0Opr/1/78853-AC-OFF/0///0
12:48:06OFF 2.71 2.6 0.3 1.1 41.70ONOFFDwn/0/0Opr/1/78913-AC-OFF/0///0
12:49:07OFF 2.71 2.6 1.9 2.5 41.65ONOFFDwn/0/0Opr/1/78973-AC-OFF/0///0
12:50:11OFF 2.71 2.6 2.7 3.8 41.58ONOFFDwn/0/0Opr/1/79038-AC-OFF/0///0
12:51:11OFF 2.71 2.6 2.0 3.2 41.48ONOFFDwn/0/0Opr/1/79098-AC-OFF/0///0
12:52:12OFF 2.70 2.6 1.8 2.5 41.44ONOFFDwn/0/0Opr/1/79159-AC-OFF/0///0
12:53:12OFF 2.69 2.6 1.2 2.8 41.42ONOFFDwn/0/0Opr/1/79219-AC-OFF/0///0
12:54:12OFF 2.69 2.6 0.2 1.1 41.57ONOFFDwn/0/0Opr/1/79279-AC-OFF/0///0
12:55:13OFF 2.70 2.6 0.1 0.4 41.82ONOFFDwn/0/0Opr/1/79340-AC-OFF/0///0
12:56:14OFF 2.70 2.6 0.3 1.1 42.05ONOFFDwn/0/0Opr/1/79400-AC-OFF/0///0
12:57:18OFF 2.70 2.6 0.1 0.8 42.25ONOFFDwn/0/0Opr/1/79465-AC-OFF/0///0
12:58:18OFF 2.69 2.6 0.6 1.1 42.38ONOFFDwn/0/0Opr/1/79525-AC-OFF/0///0
12:59:18OFF 2.70 2.6 0.2 0.8 42.32ONOFFDwn/0/0Opr/1/79585-AC-OFF/0///0
13:00:19OFF 2.70 2.6 0.0 0.4 42.20ONOFFDwn/0/0Opr/1/79645-AC-OFF/0///0
13:01:19OFF 2.70 2.6 0.0 0.4 42.14ONOFFDwn/0/0Opr/1/79706-AC-OFF/0///0
13:02:19OFF 2.68 2.6 1.3 3.5 42.17ONOFFDwn/0/0Opr/1/79766-AC-OFF/0///0
13:03:19OFF 2.70 2.6 1.8 3.5 42.14ONOFFDwn/0/0Opr/1/79826-AC-OFF/0///0
13:04:19OFF 2.69 2.6 0.4 1.1 42.11ONOFFDwn/0/0Opr/1/79886-AC-OFF/0///0
13:05:19OFF 2.69 2.6 0.0 0.0 42.09ONOFFDwn/0/0Opr/1/79946-AC-OFF/0///0
13:06:19OFF 2.71 2.6 0.1 0.8 42.08ONOFFDwn/0/0Opr/1/80006-AC-OFF/0///0
13:07:19OFF 2.68 2.6 0.6 1.4 42.14ONOFFDwn/0/0Opr/1/80066-AC-OFF/0///0
13:08:20OFF 2.70 2.6 0.2 0.8 42.24ONOFFDwn/0/0Opr/1/80126-AC-OFF/0///0
13:09:24OFF 2.69 2.6 0.0 0.0 42.39ONOFFDwn/0/0Opr/1/80191-AC-OFF/0///0
13:10:25OFF 2.70 2.6 0.0 0.0 42.65ONOFFDwn/0/0Opr/1/80252-AC-OFF/0///0
13:11:25OFF 2.69 2.6 0.0 0.0 42.94ONOFFDwn/0/0Opr/1/80312-AC-OFF/0///0
13:12:25OFF 2.70 2.6 0.0 0.0 43.12ONOFFDwn/0/0Opr/1/80372-AC-OFF/0///0
13:13:25OFF 2.69 2.6 0.0 0.4 43.16ONOFFDwn/0/0Opr/1/80432-AC-OFF/0///0
13:14:25OFF 2.70 2.6 0.8 1.4 43.13ONOFFDwn/0/0Opr/1/80492-AC-OFF/0///0
13:15:26OFF 2.69 2.6 1.8 2.5 43.11ONOFFDwn/0/0Opr/1/80552-AC-OFF/0///0
13:16:26OFF 2.68 2.6 1.0 2.5 43.09ONOFFDwn/0/0Opr/1/80613-AC-OFF/0///0
13:17:26OFF 2.69 2.6 0.3 0.8 43.11ONOFFDwn/0/0Opr/1/80673-AC-OFF/0///0
13:18:26OFF 2.68 2.6 0.3 1.1 43.16ONOFFDwn/0/0Opr/1/80733-AC-OFF/0///0
13:19:27OFF 2.68 2.6 0.0 0.4 43.31ONOFFDwn/0/0Opr/1/80793-AC-OFF/0///0
13:20:31OFF 2.69 2.6 0.0 0.4 43.60ONOFFDwn/0/0Opr/1/80858-AC-OFF/0///0
13:21:31OFF 2.68 2.6 0.0 0.0 43.92ONOFFDwn/0/0Opr/1/80918-AC-OFF/0///0
13:22:32OFF 2.68 2.6 0.0 0.0 44.25ONOFFDwn/0/0Opr/1/80979-AC-OFF/0///0
13:23:32OFF 2.67 2.6 0.0 0.0 44.69ONOFFDwn/0/0Opr/1/81039-AC-OFF/0///0
13:24:33OFF 2.68 2.6 0.0 0.0 45.12ONOFFDwn/0/0Opr/1/81099-AC-OFF/0///0
13:25:33OFF 2.67 2.6 0.3 1.8 45.41ONOFFDwn/0/0Opr/1/81159-AC-OFF/0///0
13:26:33OFF 2.68 2.6 0.2 1.4 45.59ONOFFDwn/0/0Opr/1/81220-AC-OFF/0///0
13:27:33OFF 2.69 2.6 0.0 0.4 45.66ONOFFDwn/0/0Opr/1/81280-AC-OFF/0///0
13:28:33OFF 2.68 2.6 0.0 0.0 45.70ONOFFDwn/0/0Opr/1/81340-AC-OFF/0///0
13:29:33OFF 2.68 2.6 0.0 0.0 45.72ONOFFDwn/0/0Opr/1/81400-AC-OFF/0///0
13:30:33OFF 2.68 2.6 0.1 0.4 45.62ONOFFDwn/0/0Opr/1/81460-AC-OFF/0///0
13:31:33OFF 2.67 2.6 0.0 0.4 45.47ONOFFDwn/0/0Opr/1/81520-AC-OFF/0///0


File ends on 20141125
Logs also available for previous period,
or for other periods.

Blower States: Reseting, Stopped, Starting, Testing, Operating, Faulted, OffLine